createdAt,value
2022-09-16T00:03:07.110Z,97805.80
2022-09-16T00:06:27.263Z,97808.11
2022-09-16T00:09:40.990Z,97812.40
2022-09-16T00:12:54.573Z,97821.42
2022-09-16T00:16:09.673Z,97824.69
2022-09-16T00:19:23.333Z,97821.20
2022-09-16T00:22:36.839Z,97820.77
2022-09-16T00:25:52.612Z,97826.89
2022-09-16T00:29:06.148Z,97827.72
2022-09-16T00:32:19.820Z,97837.11
2022-09-16T00:35:34.802Z,97831.11
2022-09-16T00:38:49.098Z,97839.91
2022-09-16T00:42:03.359Z,97842.70
2022-09-16T00:45:23.738Z,97843.73
2022-09-16T00:48:38.950Z,97836.94
2022-09-16T00:51:54.032Z,97834.27
2022-09-16T00:55:11.021Z,97839.80
2022-09-16T00:58:27.030Z,97828.34
2022-09-16T01:01:42.851Z,97839.80
2022-09-16T01:04:59.645Z,97841.07
2022-09-16T01:08:13.392Z,97846.04
2022-09-16T01:11:27.524Z,97847.44
2022-09-16T01:14:59.747Z,97841.67
2022-09-16T01:18:19.502Z,97842.47
2022-09-16T01:21:39.747Z,97859.73
2022-09-16T01:25:00.177Z,97860.33
2022-09-16T01:28:30.881Z,97864.03
2022-09-16T01:31:47.294Z,97864.39
2022-09-16T01:35:07.840Z,97862.89
2022-09-16T01:38:30.378Z,97859.86
2022-09-16T01:41:51.328Z,97859.30
2022-09-16T01:45:08.971Z,97858.93
2022-09-16T01:48:25.910Z,97852.77
2022-09-16T01:51:43.260Z,97861.59
2022-09-16T01:54:59.462Z,97857.53
2022-09-16T01:58:16.281Z,97858.33
2022-09-16T02:01:33.127Z,97860.20
2022-09-16T02:04:49.142Z,97856.50
2022-09-16T02:08:07.202Z,97849.07
2022-09-16T02:11:23.220Z,97851.60
2022-09-16T02:14:39.834Z,97850.57
2022-09-16T02:17:55.822Z,97850.88
2022-09-16T02:21:12.038Z,97854.00
2022-09-16T02:24:27.748Z,97855.27
2022-09-16T02:27:43.221Z,97863.50
2022-09-16T02:31:00.316Z,97862.53
2022-09-16T02:34:16.866Z,97855.89
2022-09-16T02:37:33.554Z,97864.82
2022-09-16T02:40:50.381Z,97869.72
2022-09-16T02:44:04.015Z,97870.98
2022-09-16T02:47:20.869Z,97873.70
2022-09-16T02:50:38.116Z,97876.38
2022-09-16T02:53:55.693Z,97878.00
2022-09-16T02:57:10.151Z,97869.12
2022-09-16T03:00:26.425Z,97865.05
2022-09-16T03:03:39.978Z,97872.54
2022-09-16T03:06:54.059Z,97862.68
2022-09-16T03:10:07.601Z,97870.10
2022-09-16T03:13:23.255Z,97865.44
2022-09-16T03:16:45.306Z,97864.60
2022-09-16T03:20:01.016Z,97865.44
2022-09-16T03:23:19.372Z,97867.50
2022-09-16T03:26:38.011Z,97875.26
2022-09-16T03:29:54.056Z,97872.83
2022-09-16T03:33:10.463Z,97866.70
2022-09-16T03:36:25.938Z,97864.52
2022-09-16T03:39:40.825Z,97861.11
2022-09-16T03:42:54.673Z,97873.48
2022-09-16T03:46:08.236Z,97869.69
2022-09-16T03:49:21.994Z,97862.81
2022-09-16T03:52:35.491Z,97864.48
2022-09-16T03:55:48.982Z,97856.35
2022-09-16T03:59:02.460Z,97862.17
2022-09-16T04:02:15.961Z,97865.48
2022-09-16T04:05:29.601Z,97860.38
2022-09-16T04:08:45.074Z,97854.03
2022-09-16T04:11:58.576Z,97865.70
2022-09-16T04:15:13.256Z,97871.25
2022-09-16T04:18:26.743Z,97882.69
2022-09-16T04:21:40.492Z,97881.06
2022-09-16T04:24:53.974Z,97881.89
2022-09-16T04:28:07.751Z,97881.51
2022-09-16T04:31:22.372Z,97890.14
2022-09-16T04:34:36.309Z,97889.11
2022-09-16T04:37:49.815Z,97898.08
2022-09-16T04:41:10.722Z,97889.42
2022-09-16T04:44:24.335Z,97895.35
2022-09-16T04:47:37.894Z,97895.96
2022-09-16T04:50:51.467Z,97904.32
2022-09-16T04:54:05.820Z,97901.44
2022-09-16T04:57:19.436Z,97896.69
2022-09-16T05:00:32.878Z,97895.82
2022-09-16T05:03:47.039Z,97886.61
2022-09-16T05:07:00.730Z,97909.31
2022-09-16T05:10:15.452Z,97917.60
2022-09-16T05:13:32.826Z,97915.55
2022-09-16T05:16:46.590Z,97921.02
2022-09-16T05:20:01.539Z,97917.48
2022-09-16T05:23:15.126Z,97917.63
2022-09-16T05:26:31.728Z,97916.60
2022-09-16T05:29:45.314Z,97913.11
2022-09-16T05:33:01.997Z,97907.53
2022-09-16T05:36:18.276Z,97916.64
2022-09-16T05:39:33.572Z,97923.30
2022-09-16T05:42:47.408Z,97921.75
2022-09-16T05:46:01.860Z,97920.02
2022-09-16T05:49:19.264Z,97909.30
2022-09-16T05:52:35.273Z,97908.97
2022-09-16T05:55:48.801Z,97915.50
2022-09-16T05:59:04.659Z,97911.11
2022-09-16T06:02:18.257Z,97913.34
2022-09-16T06:05:34.252Z,97915.23
2022-09-16T06:08:48.564Z,97906.77
2022-09-16T06:12:02.525Z,97893.13
2022-09-16T06:15:18.013Z,97896.72
2022-09-16T06:18:34.508Z,97892.94
2022-09-16T06:21:48.719Z,97902.91
2022-09-16T06:25:02.527Z,97906.05
2022-09-16T06:28:16.368Z,97909.20
2022-09-16T06:31:31.269Z,97911.02
2022-09-16T06:34:47.284Z,97914.86
2022-09-16T06:38:05.331Z,97916.34
2022-09-16T06:41:20.642Z,97914.43
2022-09-16T06:44:34.202Z,97911.77
2022-09-16T06:47:56.295Z,97921.11
2022-09-16T06:51:15.310Z,97925.92
2022-09-16T06:54:32.995Z,97923.81
2022-09-16T06:57:46.287Z,97924.44
2022-09-16T07:01:01.944Z,97920.27
2022-09-16T07:04:19.860Z,97922.41
2022-09-16T07:07:37.385Z,97930.52
2022-09-16T07:10:53.541Z,97937.44
2022-09-16T07:14:09.954Z,97932.80
2022-09-16T07:17:27.889Z,97937.18
2022-09-16T07:20:43.514Z,97937.08
2022-09-16T07:24:05.032Z,97941.56
2022-09-16T07:27:18.418Z,97937.78
2022-09-16T07:30:33.897Z,97932.61
2022-09-16T07:33:51.284Z,97937.39
2022-09-16T07:37:04.768Z,97927.36
2022-09-16T07:40:19.297Z,97922.30
2022-09-16T07:43:33.051Z,97926.06
2022-09-16T07:46:48.682Z,97921.50
2022-09-16T07:50:02.356Z,97924.70
2022-09-16T07:53:16.457Z,97933.16
2022-09-16T07:56:34.501Z,97925.22
2022-09-16T07:59:48.172Z,97944.18
2022-09-16T08:03:06.819Z,97940.89
2022-09-16T08:06:22.451Z,97937.67
2022-09-16T08:09:39.808Z,97945.99
2022-09-16T08:12:54.147Z,97937.56
2022-09-16T08:16:10.460Z,97931.57
2022-09-16T08:19:24.318Z,97940.53
2022-09-16T08:22:40.186Z,97942.86
2022-09-16T08:25:53.842Z,97946.93
2022-09-16T08:29:09.380Z,97952.65
2022-09-16T08:32:23.181Z,97954.41
2022-09-16T08:35:36.661Z,97946.67
2022-09-16T08:38:51.038Z,97947.83
2022-09-16T08:42:13.685Z,97946.55
2022-09-16T08:45:30.771Z,97947.89
2022-09-16T08:48:47.791Z,97948.87
2022-09-16T08:52:02.605Z,97943.03
2022-09-16T08:55:20.453Z,97950.52
2022-09-16T08:58:36.820Z,97946.08
2022-09-16T09:01:53.936Z,97940.89
2022-09-16T09:05:12.035Z,97945.51
2022-09-16T09:08:39.064Z,97942.03
2022-09-16T09:11:55.985Z,97937.52
2022-09-16T09:15:19.284Z,97946.97
2022-09-16T09:18:40.273Z,97941.36
2022-09-16T09:21:57.760Z,97931.48
2022-09-16T09:25:32.595Z,97936.52
2022-09-16T09:29:08.324Z,97939.88
2022-09-16T09:32:41.905Z,97939.27
2022-09-16T09:35:55.659Z,97936.96
2022-09-16T09:39:30.364Z,97932.60
2022-09-16T09:42:47.809Z,97939.59
2022-09-16T09:46:05.336Z,97938.48
2022-09-16T09:49:24.298Z,97937.84
2022-09-16T09:52:41.241Z,97936.67
2022-09-16T09:55:55.524Z,97946.57
2022-09-16T09:59:13.676Z,97937.22
2022-09-16T10:02:28.879Z,97931.38
2022-09-16T10:05:42.942Z,97933.00
2022-09-16T10:08:58.355Z,97940.64
2022-09-16T10:12:12.305Z,97929.17
2022-09-16T10:15:34.851Z,97931.06
2022-09-16T10:18:49.153Z,97929.17
2022-09-16T10:22:15.439Z,97928.86
2022-09-16T10:25:31.691Z,97927.23
2022-09-16T10:28:46.187Z,97931.31
2022-09-16T10:32:02.246Z,97920.22
2022-09-16T10:35:19.665Z,97921.27
2022-09-16T10:38:36.518Z,97906.55
2022-09-16T10:41:51.345Z,97914.97
2022-09-16T10:45:07.289Z,97905.67
2022-09-16T10:48:23.391Z,97908.92
2022-09-16T10:51:38.305Z,97910.90
2022-09-16T10:54:52.646Z,97907.68
2022-09-16T10:58:19.168Z,97902.05
2022-09-16T11:01:43.577Z,97915.52
2022-09-16T11:05:08.593Z,97907.77
2022-09-16T11:08:25.186Z,97908.11
2022-09-16T11:12:00.841Z,97909.70
2022-09-16T11:15:24.619Z,97905.13
2022-09-16T11:18:50.713Z,97909.39
2022-09-16T11:22:10.396Z,97900.28
2022-09-16T11:25:42.197Z,97901.12
2022-09-16T11:29:11.300Z,97886.86
2022-09-16T11:32:29.682Z,97882.58
2022-09-16T11:36:09.499Z,97880.73
2022-09-16T11:39:32.312Z,97883.27
2022-09-16T11:42:48.824Z,97874.34
2022-09-16T11:46:06.540Z,97887.01
2022-09-16T11:49:43.182Z,97881.86
2022-09-16T11:53:32.012Z,97874.44
2022-09-16T11:56:47.242Z,97871.52
2022-09-16T12:00:04.651Z,97868.95
2022-09-16T12:03:23.771Z,97867.42
2022-09-16T12:06:42.398Z,97872.77
2022-09-16T12:09:59.407Z,97873.03
2022-09-16T12:13:16.203Z,97880.86
2022-09-16T12:16:35.069Z,97873.50
2022-09-16T12:19:52.196Z,97878.31
2022-09-16T12:23:10.011Z,97875.53
2022-09-16T12:26:26.729Z,97886.38
2022-09-16T12:29:44.014Z,97888.33
2022-09-16T12:33:03.344Z,97900.38
2022-09-16T12:36:21.738Z,97899.37
2022-09-16T12:39:35.837Z,97905.54
2022-09-16T12:43:26.086Z,97901.52
2022-09-16T12:47:00.950Z,97893.61
2022-09-16T12:50:35.945Z,97889.13
2022-09-16T12:54:05.648Z,97880.70
2022-09-16T12:57:38.390Z,97878.92
2022-09-16T13:01:01.313Z,97878.73
2022-09-16T13:04:22.108Z,97874.77
2022-09-16T13:07:39.183Z,97873.05
2022-09-16T13:11:01.512Z,97869.13
2022-09-16T13:14:10.962Z,97872.39
2022-09-16T13:17:34.290Z,97872.31
2022-09-16T13:20:55.022Z,97867.54
2022-09-16T13:24:13.972Z,97854.16
2022-09-16T13:27:37.033Z,97862.66
2022-09-16T13:30:50.821Z,97859.89
2022-09-16T13:34:20.134Z,97860.69
2022-09-16T13:37:34.595Z,97850.73
2022-09-16T13:40:53.883Z,97853.96
2022-09-16T13:44:08.936Z,97843.52
2022-09-16T13:47:38.508Z,97849.99
2022-09-16T13:50:55.558Z,97851.63
2022-09-16T13:54:09.728Z,97847.98
2022-09-16T13:57:40.964Z,97842.50
2022-09-16T14:00:59.461Z,97844.09
2022-09-16T14:04:15.943Z,97848.98
2022-09-16T14:07:37.109Z,97842.80
2022-09-16T14:11:05.972Z,97844.09
2022-09-16T14:14:45.842Z,97828.37
2022-09-16T14:17:41.005Z,97826.27
2022-09-16T14:21:05.940Z,97821.72
2022-09-16T14:24:25.764Z,97817.27
2022-09-16T14:27:41.397Z,97818.40
2022-09-16T14:31:01.509Z,97814.85
2022-09-16T14:34:16.670Z,97821.00
2022-09-16T14:37:35.844Z,97816.15
2022-09-16T14:40:57.581Z,97813.94
2022-09-16T14:44:26.203Z,97808.84
2022-09-16T14:47:57.140Z,97804.62
2022-09-16T14:51:00.112Z,97814.85
2022-09-16T14:54:21.959Z,97805.77
2022-09-16T14:57:36.361Z,97812.17
2022-09-16T15:01:28.750Z,97797.75
2022-09-16T15:05:01.900Z,97800.56
2022-09-16T15:08:20.833Z,97798.80
2022-09-16T15:11:48.448Z,97800.64
2022-09-16T15:15:06.233Z,97803.57
2022-09-16T15:18:29.215Z,97790.69
2022-09-16T15:21:44.303Z,97790.69
2022-09-16T15:25:03.427Z,97794.49
2022-09-16T15:28:24.664Z,97786.72
2022-09-16T15:31:41.328Z,97787.04
2022-09-16T15:35:11.111Z,97787.77
2022-09-16T15:38:28.898Z,97784.69
2022-09-16T15:41:42.542Z,97792.13
2022-09-16T15:44:58.397Z,97791.55
2022-09-16T15:48:15.232Z,97776.26
2022-09-16T15:51:35.116Z,97764.33
2022-09-16T15:54:53.710Z,97774.47
2022-09-16T15:58:10.733Z,97778.19
2022-09-16T16:01:27.912Z,97763.99
2022-09-16T16:04:42.530Z,97770.42
2022-09-16T16:07:57.720Z,97764.96
2022-09-16T16:11:15.901Z,97769.27
2022-09-16T16:14:32.461Z,97771.61
2022-09-16T16:17:47.351Z,97766.50
2022-09-16T16:21:02.187Z,97772.35
2022-09-16T16:24:16.278Z,97771.69
2022-09-16T16:27:30.074Z,97781.25
2022-09-16T16:30:44.072Z,97776.00
2022-09-16T16:34:03.170Z,97775.33
2022-09-16T16:37:44.815Z,97778.07
2022-09-16T16:40:38.657Z,97782.25
2022-09-16T16:43:52.220Z,97783.08
2022-09-16T16:47:06.425Z,97786.95
2022-09-16T16:50:21.172Z,97787.65
2022-09-16T16:53:35.153Z,97786.02
2022-09-16T16:56:57.851Z,97791.97
2022-09-16T17:00:14.457Z,97787.58
2022-09-16T17:03:40.691Z,97777.94
2022-09-16T17:07:31.167Z,97780.50
2022-09-16T17:10:32.120Z,97784.26
2022-09-16T17:13:47.223Z,97778.47
2022-09-16T17:17:03.424Z,97782.53
2022-09-16T17:20:29.587Z,97781.03
2022-09-16T17:23:40.195Z,97785.67
2022-09-16T17:26:54.838Z,97791.25
2022-09-16T17:30:09.339Z,97778.95
2022-09-16T17:33:24.027Z,97779.43
2022-09-16T17:36:40.021Z,97776.62
2022-09-16T17:40:01.713Z,97778.34
2022-09-16T17:43:31.395Z,97774.77
2022-09-16T17:46:43.505Z,97772.66
2022-09-16T17:49:59.667Z,97780.31
2022-09-16T17:53:13.522Z,97778.36
2022-09-16T17:56:27.236Z,97782.06
2022-09-16T17:59:40.995Z,97781.83
2022-09-16T18:02:55.335Z,97789.83
2022-09-16T18:06:14.199Z,97797.24
2022-09-16T18:09:28.077Z,97800.38
2022-09-16T18:12:41.877Z,97805.72
2022-09-16T18:15:55.584Z,97808.63
2022-09-16T18:19:15.642Z,97800.62
2022-09-16T18:22:29.572Z,97797.25
2022-09-16T18:25:46.427Z,97807.31
2022-09-16T18:29:16.674Z,97802.22
2022-09-16T18:32:17.381Z,97806.16
2022-09-16T18:35:30.988Z,97809.27
2022-09-16T18:38:44.862Z,97805.80
2022-09-16T18:42:04.490Z,97799.55
2022-09-16T18:45:19.147Z,97804.97
2022-09-16T18:48:32.983Z,97815.19
2022-09-16T18:51:51.338Z,97806.13
2022-09-16T18:55:05.946Z,97809.63
2022-09-16T18:58:19.983Z,97807.98
2022-09-16T19:01:35.263Z,97806.36
2022-09-16T19:05:24.288Z,97804.61
2022-09-16T19:08:38.413Z,97811.67
2022-09-16T19:11:53.525Z,97808.96
2022-09-16T19:15:09.593Z,97807.07
2022-09-16T19:18:23.779Z,97817.00
2022-09-16T19:21:37.994Z,97812.00
2022-09-16T19:24:53.822Z,97805.71
2022-09-16T19:28:07.760Z,97813.29
2022-09-16T19:31:21.791Z,97817.22
2022-09-16T19:34:36.051Z,97816.45
2022-09-16T19:37:51.738Z,97817.39
2022-09-16T19:41:09.755Z,97808.38
2022-09-16T19:44:24.461Z,97807.34
2022-09-16T19:47:39.120Z,97811.27
2022-09-16T19:50:57.409Z,97801.28
2022-09-16T19:54:12.053Z,97799.30
2022-09-16T19:57:25.666Z,97797.87
2022-09-16T20:00:55.349Z,97794.78
2022-09-16T20:03:55.356Z,97802.30
2022-09-16T20:07:11.106Z,97812.52
2022-09-16T20:10:25.387Z,97811.92
2022-09-16T20:13:39.684Z,97809.06
2022-09-16T20:16:54.564Z,97809.41
2022-09-16T20:20:13.199Z,97803.19
2022-09-16T20:23:31.210Z,97801.36
2022-09-16T20:26:45.011Z,97801.93
2022-09-16T20:29:58.745Z,97810.89
2022-09-16T20:33:12.496Z,97808.83
2022-09-16T20:36:31.562Z,97813.13
2022-09-16T20:39:46.219Z,97814.72
2022-09-16T20:43:00.082Z,97813.32
2022-09-16T20:46:16.176Z,97816.58
2022-09-16T20:49:30.333Z,97816.81
2022-09-16T20:52:44.026Z,97808.89
2022-09-16T20:55:58.154Z,97812.90
2022-09-16T20:59:12.114Z,97806.40
2022-09-16T21:02:25.843Z,97814.21
2022-09-16T21:05:39.517Z,97815.09
2022-09-16T21:08:53.447Z,97815.41
2022-09-16T21:12:11.868Z,97820.13
2022-09-16T21:15:30.510Z,97817.92
2022-09-16T21:18:44.520Z,97831.22
2022-09-16T21:21:58.306Z,97830.62
2022-09-16T21:25:14.508Z,97841.48
2022-09-16T21:28:28.255Z,97846.20
2022-09-16T21:31:42.503Z,97841.72
2022-09-16T21:34:56.565Z,97841.48
2022-09-16T21:38:11.215Z,97842.75
2022-09-16T21:41:27.167Z,97839.55
2022-09-16T21:44:40.767Z,97842.63
2022-09-16T21:47:57.354Z,97837.00
2022-09-16T21:51:13.312Z,97842.16
2022-09-16T21:54:27.180Z,97840.41
2022-09-16T21:57:40.802Z,97840.47
2022-09-16T22:00:54.317Z,97836.46
2022-09-16T22:04:10.637Z,97839.37
2022-09-16T22:07:24.217Z,97838.76
2022-09-16T22:10:39.799Z,97841.80
2022-09-16T22:13:53.618Z,97836.10
2022-09-16T22:17:07.250Z,97831.45
2022-09-16T22:20:21.041Z,97824.91
2022-09-16T22:23:34.829Z,97822.92
2022-09-16T22:26:48.623Z,97833.74
2022-09-16T22:30:02.269Z,97836.23
2022-09-16T22:33:16.115Z,97838.69
2022-09-16T22:36:31.981Z,97844.63
2022-09-16T22:39:45.704Z,97836.27
2022-09-16T22:42:59.275Z,97838.98
2022-09-16T22:46:14.874Z,97840.84
2022-09-16T22:49:28.600Z,97846.98
2022-09-16T22:52:42.138Z,97849.20
2022-09-16T22:55:57.439Z,97845.94
2022-09-16T22:59:12.133Z,97849.42
2022-09-16T23:02:25.831Z,97845.77
2022-09-16T23:05:39.392Z,97839.66
2022-09-16T23:08:53.124Z,97840.70
2022-09-16T23:12:07.714Z,97845.63
2022-09-16T23:15:21.426Z,97836.64
2022-09-16T23:18:35.528Z,97829.11
2022-09-16T23:21:50.608Z,97831.95
2022-09-16T23:25:04.326Z,97829.11
2022-09-16T23:28:18.036Z,97823.99
2022-09-16T23:31:33.578Z,97830.94
2022-09-16T23:34:47.380Z,97827.27
2022-09-16T23:38:01.048Z,97837.08
2022-09-16T23:41:16.651Z,97825.22
2022-09-16T23:44:30.522Z,97826.64
2022-09-16T23:47:44.196Z,97828.14
2022-09-16T23:50:57.862Z,97838.14
2022-09-16T23:54:11.470Z,97836.31
2022-09-16T23:57:25.117Z,97848.14
